Time;durP1;ratioP1;P1;durP2;ratioP2;P2;SDS_P1;SDS_P2;PMS_P1;PMS_P2;Temp;Humidity;BMP_temperature;BMP_pressure;BME280_temperature;BME280_humidity;BME280_pressure;Samples;Min_cycle;Max_cycle;Signal;HPM_P1;HPM_P2
2024/02/28 00:00:51;;;;;;;66.10;21.83;;;;;;;;;;5066594;28;20027;-58
2024/02/28 00:03:17;;;;;;;61.83;20.05;;;;;;;;;;5074204;28;20082;-60
2024/02/28 00:05:44;;;;;;;69.30;19.88;;;;;;;;;;5065764;28;20040;-60
2024/02/28 00:08:10;;;;;;;62.85;20.77;;;;;;;;;;5067261;28;20093;-60
2024/02/28 00:10:36;;;;;;;56.08;22.40;;;;;;;;;;5064206;28;20103;-62
2024/02/28 00:13:02;;;;;;;67.55;20.77;;;;;;;;;;5068908;28;20029;-60
2024/02/28 00:15:28;;;;;;;57.42;19.08;;;;;;;;;;5067743;28;20032;-59
2024/02/28 00:17:55;;;;;;;59.97;20.42;;;;;;;;;;5070597;28;20024;-60
2024/02/28 00:20:21;;;;;;;60.10;19.83;;;;;;;;;;5072192;28;20029;-59
2024/02/28 00:22:47;;;;;;;55.00;18.67;;;;;;;;;;5065983;28;20046;-60
2024/02/28 00:25:13;;;;;;;64.97;19.80;;;;;;;;;;5068698;28;20545;-58
2024/02/28 00:27:39;;;;;;;59.20;18.88;;;;;;;;;;5071445;28;20108;-57
2024/02/28 00:30:06;;;;;;;59.35;19.15;;;;;;;;;;5072149;28;20055;-56
2024/02/28 00:32:32;;;;;;;58.28;18.20;;;;;;;;;;5067365;28;20032;-58
2024/02/28 00:34:58;;;;;;;57.00;17.13;;;;;;;;;;5066350;28;20429;-58
2024/02/28 00:37:25;;;;;;;52.38;16.77;;;;;;;;;;5074462;28;20086;-59
2024/02/28 00:39:51;;;;;;;50.05;18.23;;;;;;;;;;5067784;28;20028;-61
2024/02/28 00:42:16;;;;;;;69.20;19.48;;;;;;;;;;5073860;28;20032;-60
2024/02/28 00:44:42;;;;;;;62.60;18.40;;;;;;;;;;5069771;28;20491;-58
2024/02/28 00:47:11;;;;;;;58.08;18.70;;;;;;;;;;5076240;28;20593;-57
2024/02/28 00:49:37;;;;;;;56.47;17.40;;;;;;;;;;5052967;28;20036;-58
2024/02/28 00:52:04;;;;;;;53.50;16.67;;;;;;;;;;5073863;28;20033;-57
2024/02/28 00:54:30;;;;;;;52.17;17.75;;;;;;;;;;5070393;28;20524;-59
2024/02/28 00:56:56;;;;;;;62.85;19.75;;;;;;;;;;5070725;28;20021;-58
2024/02/28 00:59:21;;;;;;;53.53;16.13;;;;;;;;;;5065541;28;20053;-59
2024/02/28 01:01:48;;;;;;;66.05;18.65;;;;;;;;;;5068679;28;20031;-59
2024/02/28 01:04:15;;;;;;;56.00;20.02;;;;;;;;;;5069277;28;20475;-59
2024/02/28 01:06:41;;;;;;;63.00;18.67;;;;;;;;;;5066381;28;20513;-59
2024/02/28 01:09:07;;;;;;;64.63;19.15;;;;;;;;;;5077675;28;20028;-57
2024/02/28 01:11:33;;;;;;;57.47;22.20;;;;;;;;;;5071449;28;20035;-58
2024/02/28 01:13:59;;;;;;;66.88;20.73;;;;;;;;;;5073699;28;20032;-58
2024/02/28 01:16:25;;;;;;;57.25;17.33;;;;;;;;;;5080587;28;20104;-56
2024/02/28 01:18:51;;;;;;;52.85;17.23;;;;;;;;;;5079265;28;20485;-60
2024/02/28 01:21:17;;;;;;;69.38;21.40;;;;;;;;;;5073156;28;20089;-58
2024/02/28 01:23:43;;;;;;;58.92;18.10;;;;;;;;;;5078017;28;20044;-57
2024/02/28 01:26:09;;;;;;;64.40;22.90;;;;;;;;;;5079418;28;20058;-61
2024/02/28 01:28:35;;;;;;;64.28;20.67;;;;;;;;;;5080519;28;20093;-59
2024/02/28 01:31:01;;;;;;;63.45;19.95;;;;;;;;;;5079679;28;20031;-59
2024/02/28 01:33:27;;;;;;;74.28;19.05;;;;;;;;;;5075622;28;20024;-57
2024/02/28 01:35:53;;;;;;;71.28;20.45;;;;;;;;;;5073709;28;20046;-59
2024/02/28 01:38:19;;;;;;;59.47;18.08;;;;;;;;;;5078419;28;20669;-58
2024/02/28 01:40:48;;;;;;;76.72;21.55;;;;;;;;;;5076242;28;20107;-59
2024/02/28 01:43:14;;;;;;;56.00;20.20;;;;;;;;;;5081790;28;20092;-59
2024/02/28 01:45:40;;;;;;;64.05;19.33;;;;;;;;;;5077018;28;20073;-59
2024/02/28 01:48:13;;;;;;;64.32;19.40;;;;;;;;;;5075668;28;20033;-57
2024/02/28 01:50:39;;;;;;;59.28;21.50;;;;;;;;;;5077091;28;20025;-58
2024/02/28 01:53:08;;;;;;;57.88;20.40;;;;;;;;;;5070946;28;20135;-59
2024/02/28 01:55:34;;;;;;;78.50;21.35;;;;;;;;;;5076924;28;20127;-60
2024/02/28 01:58:00;;;;;;;63.10;20.42;;;;;;;;;;5077197;28;20129;-59
2024/02/28 02:00:28;;;;;;;63.40;23.15;;;;;;;;;;5076736;28;20406;-60
2024/02/28 02:02:54;;;;;;;69.30;22.08;;;;;;;;;;5072994;28;20021;-60
2024/02/28 02:05:20;;;;;;;65.07;19.88;;;;;;;;;;5076194;28;20413;-58
2024/02/28 02:07:48;;;;;;;65.65;20.98;;;;;;;;;;5072425;28;20023;-61
2024/02/28 02:10:14;;;;;;;74.32;23.73;;;;;;;;;;5075079;28;20429;-60
2024/02/28 02:12:39;;;;;;;67.78;22.52;;;;;;;;;;5070119;28;20035;-59
2024/02/28 02:15:06;;;;;;;66.72;22.05;;;;;;;;;;5071726;28;20039;-61
2024/02/28 02:17:32;;;;;;;75.40;20.42;;;;;;;;;;5071864;28;20039;-58
2024/02/28 02:19:58;;;;;;;86.97;25.10;;;;;;;;;;5075760;28;20028;-61
2024/02/28 02:22:27;;;;;;;67.57;21.33;;;;;;;;;;5069792;28;20035;-61
2024/02/28 02:24:53;;;;;;;70.32;22.92;;;;;;;;;;5069967;28;20490;-60
2024/02/28 02:27:18;;;;;;;68.40;19.85;;;;;;;;;;5069143;28;20086;-61
2024/02/28 02:29:44;;;;;;;69.38;24.33;;;;;;;;;;5071211;28;20032;-60
2024/02/28 02:32:10;;;;;;;82.57;24.23;;;;;;;;;;5065686;28;20032;-60
2024/02/28 02:34:36;;;;;;;64.20;21.05;;;;;;;;;;5068312;28;20099;-61
2024/02/28 02:37:02;;;;;;;75.47;23.48;;;;;;;;;;5068861;28;20056;-61
2024/02/28 02:39:28;;;;;;;84.63;25.02;;;;;;;;;;5070200;28;20075;-60
2024/02/28 02:41:54;;;;;;;83.15;22.48;;;;;;;;;;5069276;28;20083;-61
2024/02/28 02:44:20;;;;;;;74.70;22.67;;;;;;;;;;5060975;28;20037;-59
2024/02/28 02:46:46;;;;;;;71.78;21.90;;;;;;;;;;5061575;28;20056;-60
2024/02/28 02:49:12;;;;;;;71.80;23.42;;;;;;;;;;5069767;28;20588;-61
2024/02/28 02:51:38;;;;;;;68.47;23.98;;;;;;;;;;5074065;28;20070;-60
2024/02/28 02:54:04;;;;;;;76.65;24.00;;;;;;;;;;5069952;28;20122;-59
2024/02/28 02:56:30;;;;;;;70.15;22.55;;;;;;;;;;5067302;28;20587;-57
2024/02/28 02:58:56;;;;;;;82.57;24.10;;;;;;;;;;5068338;28;20025;-61
2024/02/28 03:01:22;;;;;;;73.82;23.65;;;;;;;;;;5063652;28;20047;-59
2024/02/28 03:03:48;;;;;;;83.30;28.67;;;;;;;;;;5068709;28;20032;-61
2024/02/28 03:06:14;;;;;;;68.82;23.25;;;;;;;;;;5069619;28;20340;-60
2024/02/28 03:08:40;;;;;;;69.85;21.95;;;;;;;;;;5069280;28;20081;-61
2024/02/28 03:11:08;;;;;;;87.60;27.05;;;;;;;;;;5066709;28;20032;-60
2024/02/28 03:13:34;;;;;;;82.15;26.33;;;;;;;;;;5067750;28;20028;-58
2024/02/28 03:16:00;;;;;;;69.40;24.73;;;;;;;;;;5067864;28;20037;-61
2024/02/28 03:18:26;;;;;;;98.78;27.38;;;;;;;;;;5070731;28;20069;-56
2024/02/28 03:20:52;;;;;;;65.43;21.77;;;;;;;;;;5061870;28;20036;-60
2024/02/28 03:23:18;;;;;;;100.10;27.92;;;;;;;;;;5069425;28;20041;-61
2024/02/28 03:25:44;;;;;;;95.03;28.10;;;;;;;;;;5071834;28;20029;-61
2024/02/28 03:28:09;;;;;;;97.60;29.80;;;;;;;;;;5053178;28;20028;-59
2024/02/28 03:30:35;;;;;;;97.22;28.88;;;;;;;;;;5070635;28;20028;-59
2024/02/28 03:33:01;;;;;;;116.32;31.88;;;;;;;;;;5066630;28;20025;-59
2024/02/28 03:35:27;;;;;;;104.53;29.20;;;;;;;;;;5066028;28;20095;-59
2024/02/28 03:37:53;;;;;;;95.53;27.20;;;;;;;;;;5066490;28;20020;-58
2024/02/28 03:40:19;;;;;;;103.38;28.63;;;;;;;;;;5070674;28;20070;-61
2024/02/28 03:42:45;;;;;;;93.38;27.42;;;;;;;;;;5067447;28;20029;-60
2024/02/28 03:45:11;;;;;;;97.90;28.23;;;;;;;;;;5068415;28;20415;-62
2024/02/28 03:47:37;;;;;;;104.72;26.85;;;;;;;;;;5060555;28;20070;-57
2024/02/28 03:50:04;;;;;;;92.68;28.27;;;;;;;;;;5066111;28;20037;-60
2024/02/28 03:52:30;;;;;;;98.13;29.70;;;;;;;;;;5066689;28;20108;-61
2024/02/28 03:54:57;;;;;;;90.28;27.88;;;;;;;;;;5067775;28;20541;-61
2024/02/28 03:57:23;;;;;;;89.35;27.42;;;;;;;;;;5068152;28;20013;-60
2024/02/28 03:59:49;;;;;;;110.65;29.15;;;;;;;;;;5069271;28;20124;-59
2024/02/28 04:02:15;;;;;;;108.25;27.35;;;;;;;;;;5056027;28;20459;-59
2024/02/28 04:04:41;;;;;;;92.20;30.80;;;;;;;;;;5070630;28;20055;-61
2024/02/28 04:07:07;;;;;;;99.35;27.10;;;;;;;;;;5070552;28;20021;-61
2024/02/28 04:09:33;;;;;;;96.50;28.48;;;;;;;;;;5071270;28;20024;-60
2024/02/28 04:11:59;;;;;;;95.20;27.13;;;;;;;;;;5065732;28;20158;-60
2024/02/28 04:14:25;;;;;;;103.82;29.50;;;;;;;;;;5065112;28;20063;-61
2024/02/28 04:16:51;;;;;;;106.95;27.02;;;;;;;;;;5067348;28;20047;-61
2024/02/28 04:19:17;;;;;;;95.78;27.75;;;;;;;;;;5066750;28;20077;-60
2024/02/28 04:21:42;;;;;;;84.75;28.60;;;;;;;;;;5065644;28;20025;-60
2024/02/28 04:24:12;;;;;;;101.60;29.65;;;;;;;;;;5067890;28;20040;-60
2024/02/28 04:26:38;;;;;;;98.95;26.92;;;;;;;;;;5066721;28;20016;-61
2024/02/28 04:29:05;;;;;;;93.47;28.33;;;;;;;;;;5064032;28;20035;-61
2024/02/28 04:31:32;;;;;;;91.88;28.15;;;;;;;;;;5070432;28;20063;-60
2024/02/28 04:33:58;;;;;;;87.90;25.63;;;;;;;;;;5062865;28;20024;-61
2024/02/28 04:36:24;;;;;;;80.63;25.17;;;;;;;;;;5068336;28;20043;-60
2024/02/28 04:38:50;;;;;;;111.57;29.00;;;;;;;;;;5068088;28;20016;-61
2024/02/28 04:41:15;;;;;;;113.50;32.72;;;;;;;;;;5067184;28;20036;-61
2024/02/28 04:43:41;;;;;;;102.90;28.27;;;;;;;;;;5066580;28;20024;-59
2024/02/28 04:46:07;;;;;;;89.30;28.27;;;;;;;;;;5062814;28;20059;-59
2024/02/28 04:48:34;;;;;;;93.72;27.10;;;;;;;;;;5062362;28;20043;-59
2024/02/28 04:51:02;;;;;;;80.35;25.45;;;;;;;;;;5066774;28;20040;-60
2024/02/28 04:53:28;;;;;;;97.15;29.63;;;;;;;;;;5070460;28;20058;-61
2024/02/28 04:55:54;;;;;;;92.13;29.35;;;;;;;;;;5069136;28;20402;-61
2024/02/28 04:58:20;;;;;;;100.43;28.35;;;;;;;;;;5067738;28;20032;-61
2024/02/28 05:00:46;;;;;;;105.43;29.95;;;;;;;;;;5067339;28;20031;-61
2024/02/28 05:03:12;;;;;;;81.43;25.55;;;;;;;;;;5068557;28;20017;-61
2024/02/28 05:05:38;;;;;;;93.63;26.90;;;;;;;;;;5065693;28;20036;-59
2024/02/28 05:08:05;;;;;;;90.35;26.13;;;;;;;;;;5066001;28;20035;-61
2024/02/28 05:10:31;;;;;;;96.28;26.50;;;;;;;;;;5066411;28;20079;-59
2024/02/28 05:12:57;;;;;;;101.97;30.70;;;;;;;;;;5062460;28;20124;-60
2024/02/28 05:15:23;;;;;;;116.38;30.00;;;;;;;;;;5060708;28;20482;-60
2024/02/28 05:17:52;;;;;;;108.45;28.95;;;;;;;;;;5061581;28;20029;-60
2024/02/28 05:20:18;;;;;;;90.95;27.48;;;;;;;;;;5060234;28;20017;-61
2024/02/28 05:22:44;;;;;;;103.32;27.48;;;;;;;;;;5066313;28;20025;-60
2024/02/28 05:25:10;;;;;;;103.47;31.83;;;;;;;;;;5065623;28;20039;-61
2024/02/28 05:27:36;;;;;;;108.63;28.05;;;;;;;;;;5065184;28;20044;-60
2024/02/28 05:30:05;;;;;;;98.55;27.15;;;;;;;;;;5063111;28;20130;-60
2024/02/28 05:32:31;;;;;;;116.40;29.60;;;;;;;;;;5063697;28;20028;-62
2024/02/28 05:34:57;;;;;;;105.30;30.52;;;;;;;;;;5065203;28;20174;-61
2024/02/28 05:37:23;;;;;;;97.75;29.15;;;;;;;;;;5067816;28;20035;-61
2024/02/28 05:39:50;;;;;;;101.25;29.42;;;;;;;;;;5066737;28;20040;-61
2024/02/28 05:42:21;;;;;;;94.55;29.27;;;;;;;;;;5067424;28;20690;-62
2024/02/28 05:44:48;;;;;;;108.55;29.75;;;;;;;;;;5065549;28;20039;-58
2024/02/28 05:47:14;;;;;;;110.25;30.58;;;;;;;;;;5067460;28;20070;-62
2024/02/28 05:49:40;;;;;;;98.30;27.52;;;;;;;;;;5067498;28;20032;-59
2024/02/28 05:52:06;;;;;;;81.30;24.50;;;;;;;;;;5066327;28;20040;-59
2024/02/28 05:54:33;;;;;;;99.53;25.80;;;;;;;;;;5071626;28;20109;-61
2024/02/28 05:56:59;;;;;;;92.00;24.25;;;;;;;;;;5064270;28;20107;-57
2024/02/28 05:59:26;;;;;;;88.70;24.55;;;;;;;;;;5066883;28;20104;-59
2024/02/28 06:01:52;;;;;;;85.97;23.90;;;;;;;;;;5071884;28;20029;-57
2024/02/28 06:04:18;;;;;;;82.18;25.15;;;;;;;;;;5072835;28;20034;-60
2024/02/28 06:06:44;;;;;;;113.80;28.13;;;;;;;;;;5072401;28;20029;-59
2024/02/28 06:09:10;;;;;;;90.82;29.35;;;;;;;;;;5072112;28;20028;-59
2024/02/28 06:11:36;;;;;;;106.22;26.98;;;;;;;;;;5068724;28;20494;-59
2024/02/28 06:14:03;;;;;;;89.05;24.55;;;;;;;;;;5074117;28;20135;-60
2024/02/28 06:16:30;;;;;;;88.03;26.23;;;;;;;;;;5073096;28;20488;-60
2024/02/28 06:18:55;;;;;;;105.43;26.15;;;;;;;;;;5067076;28;20037;-58
2024/02/28 06:21:25;;;;;;;85.85;25.58;;;;;;;;;;5049852;28;20043;-62
2024/02/28 06:23:51;;;;;;;103.18;26.95;;;;;;;;;;5075554;28;20021;-58
2024/02/28 06:26:17;;;;;;;93.78;27.58;;;;;;;;;;5070066;28;20479;-61
2024/02/28 06:28:46;;;;;;;83.90;26.45;;;;;;;;;;5070098;28;20039;-60
2024/02/28 06:31:13;;;;;;;81.32;24.00;;;;;;;;;;5065428;28;20036;-59
2024/02/28 06:33:39;;;;;;;94.07;27.65;;;;;;;;;;5073442;28;20055;-60
2024/02/28 06:36:05;;;;;;;83.80;23.15;;;;;;;;;;5067769;28;20028;-59
2024/02/28 06:38:31;;;;;;;97.43;24.48;;;;;;;;;;5080634;28;20104;-59
2024/02/28 06:40:57;;;;;;;84.82;24.38;;;;;;;;;;5063201;28;20028;-60
2024/02/28 06:43:23;;;;;;;96.30;25.83;;;;;;;;;;5066396;28;20047;-56
2024/02/28 06:45:49;;;;;;;87.70;23.80;;;;;;;;;;5070873;28;20024;-61
2024/02/28 06:48:15;;;;;;;90.72;22.70;;;;;;;;;;5076453;28;20043;-58
2024/02/28 06:50:41;;;;;;;90.20;25.52;;;;;;;;;;5070413;28;20034;-61
2024/02/28 06:53:08;;;;;;;81.53;23.00;;;;;;;;;;5075621;28;20104;-58
2024/02/28 06:55:34;;;;;;;77.15;24.77;;;;;;;;;;5071050;28;20031;-56
2024/02/28 06:58:00;;;;;;;96.32;27.38;;;;;;;;;;5072411;28;20024;-60
2024/02/28 07:00:25;;;;;;;99.55;26.50;;;;;;;;;;5067068;28;20024;-59
2024/02/28 07:02:53;;;;;;;107.60;24.73;;;;;;;;;;5069737;28;20086;-58
2024/02/28 07:05:19;;;;;;;76.82;21.88;;;;;;;;;;5072860;28;20032;-59
2024/02/28 07:07:45;;;;;;;96.43;27.85;;;;;;;;;;5076367;28;20031;-60
2024/02/28 07:10:11;;;;;;;88.03;25.85;;;;;;;;;;5065308;28;20040;-57
2024/02/28 07:12:37;;;;;;;102.60;26.75;;;;;;;;;;5077395;28;20064;-59
2024/02/28 07:15:03;;;;;;;87.57;23.10;;;;;;;;;;5071179;28;20479;-61
2024/02/28 07:17:29;;;;;;;83.40;27.35;;;;;;;;;;5071537;28;20523;-60
2024/02/28 07:19:55;;;;;;;91.60;26.08;;;;;;;;;;5070327;28;20107;-57
2024/02/28 07:22:21;;;;;;;84.35;23.52;;;;;;;;;;5048773;28;20480;-58
2024/02/28 07:24:47;;;;;;;98.60;27.38;;;;;;;;;;5075028;28;20515;-59
2024/02/28 07:27:13;;;;;;;94.63;28.45;;;;;;;;;;5069464;28;20036;-58
2024/02/28 07:29:39;;;;;;;100.28;26.67;;;;;;;;;;5074996;28;20020;-61
2024/02/28 07:32:05;;;;;;;97.38;26.60;;;;;;;;;;5072915;28;20382;-61
2024/02/28 07:34:31;;;;;;;81.53;25.33;;;;;;;;;;5068286;28;20030;-60
2024/02/28 07:36:57;;;;;;;106.07;28.45;;;;;;;;;;5071275;28;20094;-60
2024/02/28 07:39:24;;;;;;;94.90;27.27;;;;;;;;;;5070739;28;20168;-60
2024/02/28 07:41:50;;;;;;;86.50;23.35;;;;;;;;;;5073235;28;20035;-61
2024/02/28 07:44:16;;;;;;;103.45;26.27;;;;;;;;;;5077429;28;20033;-61
2024/02/28 07:46:42;;;;;;;96.68;27.25;;;;;;;;;;5064969;28;20064;-61
2024/02/28 07:49:09;;;;;;;100.40;26.70;;;;;;;;;;5066534;28;20028;-61
2024/02/28 07:51:36;;;;;;;84.20;23.27;;;;;;;;;;5064123;28;20025;-56
2024/02/28 07:54:02;;;;;;;86.63;23.83;;;;;;;;;;5076213;28;20028;-57
2024/02/28 07:56:30;;;;;;;102.50;26.30;;;;;;;;;;5068369;28;20059;-60
2024/02/28 07:58:56;;;;;;;104.47;28.85;;;;;;;;;;5065429;28;20028;-61
2024/02/28 08:01:22;;;;;;;87.05;29.52;;;;;;;;;;5064564;28;20229;-60
2024/02/28 08:03:48;;;;;;;94.75;27.13;;;;;;;;;;5070388;28;20034;-60
2024/02/28 08:06:16;;;;;;;94.68;26.35;;;;;;;;;;5069610;28;20036;-58
2024/02/28 08:08:45;;;;;;;114.53;31.90;;;;;;;;;;5075715;28;20379;-60
2024/02/28 08:11:11;;;;;;;91.80;27.23;;;;;;;;;;5072479;28;20020;-60
2024/02/28 08:13:37;;;;;;;83.30;25.33;;;;;;;;;;5067035;28;20042;-60
2024/02/28 08:16:03;;;;;;;99.75;29.05;;;;;;;;;;5067550;28;20031;-61
2024/02/28 08:18:29;;;;;;;88.00;27.75;;;;;;;;;;5069047;28;20024;-61
2024/02/28 08:20:58;;;;;;;86.03;25.45;;;;;;;;;;5074165;28;20021;-61
2024/02/28 08:23:26;;;;;;;83.20;26.63;;;;;;;;;;5071614;28;20111;-61
2024/02/28 08:25:52;;;;;;;92.55;27.48;;;;;;;;;;5068134;28;20013;-61
2024/02/28 08:28:19;;;;;;;84.78;27.23;;;;;;;;;;5061998;28;20370;-61
2024/02/28 08:30:45;;;;;;;81.68;25.55;;;;;;;;;;5063484;28;20027;-60
2024/02/28 08:33:11;;;;;;;98.97;28.52;;;;;;;;;;5060487;28;20028;-59
2024/02/28 08:35:37;;;;;;;107.03;26.25;;;;;;;;;;5068735;28;20155;-62
2024/02/28 08:38:03;;;;;;;83.72;25.75;;;;;;;;;;5074954;28;20064;-59
2024/02/28 08:40:30;;;;;;;83.28;26.25;;;;;;;;;;5072506;28;20025;-60
2024/02/28 08:42:56;;;;;;;89.28;26.63;;;;;;;;;;5069060;28;20028;-60
2024/02/28 08:45:25;;;;;;;85.35;27.42;;;;;;;;;;5065825;28;20075;-59
2024/02/28 08:47:52;;;;;;;93.65;26.73;;;;;;;;;;5070665;28;20467;-60
2024/02/28 08:50:19;;;;;;;93.90;25.45;;;;;;;;;;5075286;28;20038;-61
2024/02/28 08:52:45;;;;;;;76.00;25.58;;;;;;;;;;5068890;28;20039;-58
2024/02/28 08:55:11;;;;;;;62.63;22.67;;;;;;;;;;5074242;28;20444;-61
2024/02/28 08:57:37;;;;;;;90.32;25.52;;;;;;;;;;5068431;28;20105;-62
2024/02/28 09:00:03;;;;;;;68.78;24.90;;;;;;;;;;5069612;28;20104;-60
2024/02/28 09:02:29;;;;;;;79.95;25.23;;;;;;;;;;5069459;28;20119;-62
2024/02/28 09:04:56;;;;;;;85.78;22.98;;;;;;;;;;5070845;28;20475;-61
2024/02/28 09:07:22;;;;;;;85.90;23.85;;;;;;;;;;5052576;28;20027;-60
2024/02/28 09:09:49;;;;;;;79.80;23.40;;;;;;;;;;5064841;28;20052;-61
2024/02/28 09:12:15;;;;;;;74.00;25.88;;;;;;;;;;5066645;28;20113;-60
2024/02/28 09:14:41;;;;;;;80.40;24.80;;;;;;;;;;5066523;28;20116;-60
2024/02/28 09:17:07;;;;;;;83.25;23.05;;;;;;;;;;5067052;28;20437;-60
2024/02/28 09:19:33;;;;;;;84.82;22.48;;;;;;;;;;5072858;28;20071;-60
2024/02/28 09:21:59;;;;;;;77.43;22.50;;;;;;;;;;5078102;28;20039;-61
2024/02/28 09:24:26;;;;;;;75.85;23.85;;;;;;;;;;5064490;28;20033;-57
2024/02/28 09:26:52;;;;;;;81.57;26.15;;;;;;;;;;5066467;28;20032;-58
2024/02/28 09:29:18;;;;;;;84.40;26.25;;;;;;;;;;5064777;28;20073;-61
2024/02/28 09:31:44;;;;;;;87.75;23.05;;;;;;;;;;5067566;28;20033;-60
2024/02/28 09:34:10;;;;;;;70.15;24.67;;;;;;;;;;5066065;28;20044;-61
2024/02/28 09:36:45;;;;;;;76.88;24.02;;;;;;;;;;5069652;28;20557;-59
2024/02/28 09:39:11;;;;;;;78.45;23.88;;;;;;;;;;5077040;28;20139;-61
2024/02/28 09:41:36;;;;;;;85.03;24.70;;;;;;;;;;5070256;28;20143;-60
2024/02/28 09:44:03;;;;;;;76.20;26.50;;;;;;;;;;5069629;28;20029;-61
2024/02/28 09:46:29;;;;;;;69.38;24.98;;;;;;;;;;5064164;28;20059;-62
2024/02/28 09:48:56;;;;;;;76.85;25.13;;;;;;;;;;5070208;28;20090;-61
2024/02/28 09:51:24;;;;;;;71.80;22.98;;;;;;;;;;5068338;28;20490;-58
2024/02/28 09:53:50;;;;;;;76.53;26.75;;;;;;;;;;5079687;28;20032;-60
2024/02/28 09:56:17;;;;;;;67.32;22.67;;;;;;;;;;5072263;28;20143;-59
2024/02/28 09:58:43;;;;;;;77.20;25.58;;;;;;;;;;5066093;28;20024;-61
2024/02/28 10:01:12;;;;;;;82.13;26.58;;;;;;;;;;5064372;28;20027;-59
2024/02/28 10:03:38;;;;;;;70.60;23.02;;;;;;;;;;5073414;28;20032;-60
2024/02/28 10:06:04;;;;;;;71.32;22.48;;;;;;;;;;5064507;28;20067;-59
2024/02/28 10:08:31;;;;;;;85.95;26.20;;;;;;;;;;5071829;28;20499;-60
2024/02/28 10:10:58;;;;;;;77.35;25.58;;;;;;;;;;5071188;28;20039;-61
2024/02/28 10:13:24;;;;;;;71.22;25.05;;;;;;;;;;5062250;28;20021;-60
2024/02/28 10:15:50;;;;;;;76.78;24.85;;;;;;;;;;5075502;28;20399;-59
2024/02/28 10:18:16;;;;;;;76.60;25.95;;;;;;;;;;5069113;28;20029;-60
2024/02/28 10:20:42;;;;;;;93.38;23.63;;;;;;;;;;5074546;28;20020;-59
2024/02/28 10:23:11;;;;;;;65.95;22.48;;;;;;;;;;5064279;28;20384;-58
2024/02/28 10:25:47;;;;;;;74.70;23.48;;;;;;;;;;5068770;28;20100;-60
2024/02/28 10:28:14;;;;;;;71.13;23.60;;;;;;;;;;5065943;28;20479;-59
2024/02/28 10:30:44;;;;;;;70.75;23.90;;;;;;;;;;5067232;28;20061;-59
2024/02/28 10:33:16;;;;;;;68.97;23.23;;;;;;;;;;5063344;28;20051;-59
2024/02/28 10:35:43;;;;;;;60.83;22.30;;;;;;;;;;5069012;28;20025;-61
2024/02/28 10:38:12;;;;;;;66.43;23.65;;;;;;;;;;5071552;28;20025;-60
2024/02/28 10:40:40;;;;;;;80.90;25.17;;;;;;;;;;5069629;28;20031;-61
2024/02/28 10:43:08;;;;;;;76.78;25.10;;;;;;;;;;5068045;28;20095;-62
2024/02/28 10:45:35;;;;;;;65.55;22.83;;;;;;;;;;5066781;28;20390;-61
2024/02/28 10:48:01;;;;;;;55.50;20.27;;;;;;;;;;5061042;28;20029;-61
2024/02/28 10:50:27;;;;;;;62.17;21.40;;;;;;;;;;5066922;28;20444;-61
2024/02/28 10:52:54;;;;;;;57.95;20.52;;;;;;;;;;5062109;28;20550;-60
2024/02/28 10:55:23;;;;;;;68.80;21.45;;;;;;;;;;5068881;28;20036;-61
2024/02/28 10:57:59;;;;;;;60.17;22.63;;;;;;;;;;5078128;28;20008;-60
2024/02/28 11:00:25;;;;;;;75.22;23.23;;;;;;;;;;5065696;28;20777;-61
2024/02/28 11:02:51;;;;;;;65.80;22.05;;;;;;;;;;5070058;28;20096;-61
2024/02/28 11:05:18;;;;;;;57.30;19.67;;;;;;;;;;5064361;28;20056;-59
2024/02/28 11:07:44;;;;;;;56.60;20.70;;;;;;;;;;5070937;28;20021;-60
2024/02/28 11:10:10;;;;;;;57.65;17.15;;;;;;;;;;5069143;28;20028;-60
2024/02/28 11:12:37;;;;;;;58.13;19.55;;;;;;;;;;5073942;28;20033;-56
2024/02/28 11:15:06;;;;;;;61.67;21.98;;;;;;;;;;5065213;28;20066;-60
2024/02/28 11:17:32;;;;;;;55.42;19.38;;;;;;;;;;5065893;28;20031;-61
2024/02/28 11:19:58;;;;;;;62.83;20.95;;;;;;;;;;5069107;28;20521;-61
2024/02/28 11:22:24;;;;;;;56.50;20.08;;;;;;;;;;5066869;28;20987;-63
2024/02/28 11:24:54;;;;;;;61.58;21.05;;;;;;;;;;5068974;28;20032;-63
2024/02/28 11:27:20;;;;;;;52.08;17.70;;;;;;;;;;5047099;28;20047;-61
2024/02/28 11:29:46;;;;;;;65.10;21.77;;;;;;;;;;5062386;28;20040;-61
2024/02/28 11:32:14;;;;;;;65.80;21.42;;;;;;;;;;5066064;28;20107;-61
2024/02/28 11:34:40;;;;;;;70.95;22.20;;;;;;;;;;5063523;28;20027;-61
2024/02/28 11:37:07;;;;;;;56.08;19.35;;;;;;;;;;5060574;28;20108;-61
2024/02/28 11:39:33;;;;;;;61.38;19.45;;;;;;;;;;5060596;28;20568;-61
2024/02/28 11:42:16;;;;;;;57.13;19.30;;;;;;;;;;5061197;28;20028;-62
2024/02/28 11:44:42;;;;;;;48.05;19.55;;;;;;;;;;5062961;28;20025;-61
2024/02/28 11:47:11;;;;;;;54.22;20.63;;;;;;;;;;5062195;28;20025;-64
2024/02/28 11:49:38;;;;;;;52.47;19.67;;;;;;;;;;5062385;28;20025;-61
2024/02/28 11:52:05;;;;;;;55.28;18.90;;;;;;;;;;5067339;28;20028;-62
2024/02/28 11:54:31;;;;;;;50.10;16.75;;;;;;;;;;5063771;28;20453;-61
2024/02/28 11:56:57;;;;;;;53.67;18.73;;;;;;;;;;5064235;28;20028;-60
2024/02/28 11:59:23;;;;;;;52.63;17.55;;;;;;;;;;5065066;28;20024;-61
2024/02/28 12:01:50;;;;;;;49.33;17.42;;;;;;;;;;5061658;28;20035;-62
2024/02/28 12:04:16;;;;;;;42.25;16.10;;;;;;;;;;5065337;28;20052;-60
2024/02/28 12:06:42;;;;;;;52.20;18.35;;;;;;;;;;5061807;28;20043;-62
2024/02/28 12:09:09;;;;;;;52.78;17.80;;;;;;;;;;5065044;28;20082;-61
2024/02/28 12:11:35;;;;;;;48.70;16.77;;;;;;;;;;5060264;28;20100;-60
2024/02/28 12:14:07;;;;;;;48.17;15.60;;;;;;;;;;5062525;28;20451;-62
2024/02/28 12:16:32;;;;;;;44.45;16.80;;;;;;;;;;5060902;28;20023;-61
2024/02/28 12:18:58;;;;;;;49.58;16.45;;;;;;;;;;5063302;28;20021;-59
2024/02/28 12:21:24;;;;;;;49.47;18.80;;;;;;;;;;5062086;28;20021;-62
2024/02/28 12:23:51;;;;;;;48.17;16.73;;;;;;;;;;5064506;28;20506;-61
2024/02/28 12:26:20;;;;;;;41.38;14.55;;;;;;;;;;5063683;28;20029;-60
2024/02/28 12:28:46;;;;;;;38.75;14.93;;;;;;;;;;5063555;28;20045;-62
2024/02/28 12:31:13;;;;;;;44.13;16.63;;;;;;;;;;5060546;28;20366;-62
2024/02/28 12:33:39;;;;;;;47.58;16.42;;;;;;;;;;5064454;28;20108;-60
2024/02/28 12:36:05;;;;;;;47.03;17.10;;;;;;;;;;5059258;28;20033;-61
2024/02/28 12:38:31;;;;;;;39.00;14.43;;;;;;;;;;5067397;28;20017;-60
2024/02/28 12:40:57;;;;;;;38.00;13.85;;;;;;;;;;5062468;28;20028;-60
2024/02/28 12:43:25;;;;;;;44.22;14.93;;;;;;;;;;5060082;28;20510;-59
2024/02/28 12:45:51;;;;;;;35.28;13.48;;;;;;;;;;5061303;28;20028;-60
2024/02/28 12:48:17;;;;;;;36.85;15.30;;;;;;;;;;5061195;28;20023;-62
2024/02/28 12:50:43;;;;;;;39.42;12.90;;;;;;;;;;5064020;28;20499;-61
2024/02/28 12:53:09;;;;;;;35.42;13.95;;;;;;;;;;5062108;28;20478;-61
2024/02/28 12:55:35;;;;;;;41.15;15.52;;;;;;;;;;5064876;28;20625;-57
2024/02/28 12:58:04;;;;;;;33.95;14.10;;;;;;;;;;5061375;28;20028;-57
2024/02/28 13:00:30;;;;;;;39.17;13.95;;;;;;;;;;5062098;28;20020;-61
2024/02/28 13:02:56;;;;;;;54.15;18.85;;;;;;;;;;5065378;28;20158;-60
2024/02/28 13:05:22;;;;;;;39.55;15.00;;;;;;;;;;5060191;28;20028;-57
2024/02/28 13:07:48;;;;;;;45.97;16.63;;;;;;;;;;5062989;28;20036;-62
2024/02/28 13:10:14;;;;;;;45.55;15.50;;;;;;;;;;5065135;28;20034;-60
2024/02/28 13:12:40;;;;;;;42.75;15.85;;;;;;;;;;5062240;28;20090;-62
2024/02/28 13:15:07;;;;;;;41.20;15.75;;;;;;;;;;5064473;28;20028;-60
2024/02/28 13:17:33;;;;;;;41.90;15.73;;;;;;;;;;5064393;28;20433;-60
2024/02/28 13:19:59;;;;;;;41.83;13.85;;;;;;;;;;5063405;28;20025;-59
2024/02/28 13:22:26;;;;;;;39.67;16.35;;;;;;;;;;5063087;28;20142;-60
2024/02/28 13:24:52;;;;;;;40.17;15.15;;;;;;;;;;5058089;28;20024;-59
2024/02/28 13:27:18;;;;;;;36.03;12.18;;;;;;;;;;5060115;28;20039;-58
2024/02/28 13:29:44;;;;;;;31.70;14.85;;;;;;;;;;5064454;28;20048;-59
2024/02/28 13:32:09;;;;;;;43.90;15.63;;;;;;;;;;5058257;28;20032;-62
2024/02/28 13:34:35;;;;;;;31.17;13.25;;;;;;;;;;5064831;28;20035;-61
2024/02/28 13:37:01;;;;;;;37.35;13.10;;;;;;;;;;5057965;28;20028;-60
2024/02/28 13:39:27;;;;;;;37.22;13.55;;;;;;;;;;5064716;28;20025;-62
2024/02/28 13:41:53;;;;;;;34.10;13.02;;;;;;;;;;5066905;28;20021;-62
2024/02/28 13:44:19;;;;;;;36.03;13.40;;;;;;;;;;5068246;28;20111;-59
2024/02/28 13:46:46;;;;;;;35.90;12.98;;;;;;;;;;5059209;28;20319;-60
2024/02/28 13:49:14;;;;;;;31.60;12.93;;;;;;;;;;5063166;28;20111;-59
2024/02/28 13:51:40;;;;;;;34.22;12.00;;;;;;;;;;5061657;28;20036;-61
2024/02/28 13:54:06;;;;;;;32.38;11.68;;;;;;;;;;5057935;28;20020;-60
2024/02/28 13:56:32;;;;;;;31.88;12.18;;;;;;;;;;5059704;28;20487;-60
2024/02/28 13:58:58;;;;;;;28.38;11.68;;;;;;;;;;5042126;28;20044;-60
2024/02/28 14:01:24;;;;;;;31.52;10.23;;;;;;;;;;5058451;28;20033;-57
2024/02/28 14:03:50;;;;;;;31.17;12.73;;;;;;;;;;5065210;28;20035;-58
2024/02/28 14:06:16;;;;;;;32.90;12.25;;;;;;;;;;5064874;28;20486;-60
2024/02/28 14:08:42;;;;;;;36.60;13.55;;;;;;;;;;5064683;28;20036;-60
2024/02/28 14:11:08;;;;;;;32.90;12.90;;;;;;;;;;5064796;28;20035;-61